Time;durP1;ratioP1;P1;durP2;ratioP2;P2;SDS_P1;SDS_P2;PMS_P1;PMS_P2;Temp;Humidity;BMP_temperature;BMP_pressure;BME280_temperature;BME280_humidity;BME280_pressure;Samples;Min_cycle;Max_cycle;Signal;HPM_P1;HPM_P2
2023/10/08 00:01:13;;;;;;;21.35;12.60;;;16.80;99.90;;;;;;4793612;29;20051;-79
2023/10/08 00:03:40;;;;;;;19.83;11.70;;;16.70;99.90;;;;;;4793885;29;20131;-79
2023/10/08 00:06:06;;;;;;;19.63;11.48;;;16.60;99.90;;;;;;4788759;29;20038;-78
2023/10/08 00:08:33;;;;;;;17.77;10.43;;;16.50;99.90;;;;;;4806621;29;20046;-78
2023/10/08 00:11:05;;;;;;;18.52;11.35;;;16.50;99.90;;;;;;4788289;29;20056;-79
2023/10/08 00:13:31;;;;;;;18.42;9.50;;;16.40;99.90;;;;;;4793105;29;20472;-78
2023/10/08 00:15:57;;;;;;;13.77;7.80;;;16.30;99.90;;;;;;4783530;29;20078;-78
2023/10/08 00:18:23;;;;;;;13.48;6.55;;;16.20;99.90;;;;;;4807306;29;20042;-78
2023/10/08 00:20:57;;;;;;;12.07;6.65;;;16.10;99.90;;;;;;4806698;29;20042;-79
2023/10/08 00:23:25;;;;;;;9.95;5.82;;;15.90;99.90;;;;;;4791345;29;20050;-80
2023/10/08 00:25:52;;;;;;;8.43;4.68;;;15.60;99.90;;;;;;4791921;29;20037;-79
2023/10/08 00:28:18;;;;;;;6.68;4.25;;;15.40;99.90;;;;;;4822016;29;20041;-77
2023/10/08 00:30:44;;;;;;;6.78;4.90;;;15.10;99.90;;;;;;4820564;29;20095;-78
2023/10/08 00:33:11;;;;;;;8.68;5.57;;;14.80;99.90;;;;;;4807287;29;20069;-78
2023/10/08 00:35:41;;;;;;;10.13;5.63;;;14.70;99.90;;;;;;4808236;29;20089;-79
2023/10/08 00:38:14;;;;;;;6.53;5.28;;;14.50;99.90;;;;;;4795368;29;20054;-77
2023/10/08 00:40:46;;;;;;;7.63;5.93;;;14.40;99.90;;;;;;4825052;29;20557;-79
2023/10/08 00:43:35;;;;;;;5.97;4.45;;;14.30;99.90;;;;;;4810162;29;20128;-77
2023/10/08 00:46:01;;;;;;;6.15;3.22;;;14.20;99.90;;;;;;4788409;29;20053;-79
2023/10/08 00:48:29;;;;;;;4.93;3.35;;;14.10;99.90;;;;;;4807069;29;20103;-79
2023/10/08 00:51:15;;;;;;;5.22;3.28;;;14.00;99.90;;;;;;4804208;29;20528;-78
2023/10/08 00:53:43;;;;;;;4.25;3.22;;;13.90;99.90;;;;;;4789177;29;20498;-78
2023/10/08 00:56:19;;;;;;;4.18;3.05;;;13.80;99.90;;;;;;4804440;29;20050;-78
2023/10/08 00:58:52;;;;;;;4.35;2.60;;;13.80;99.90;;;;;;4806530;29;20046;-78
2023/10/08 01:01:20;;;;;;;4.35;2.75;;;13.70;99.90;;;;;;4786742;29;20049;-78
2023/10/08 01:03:49;;;;;;;3.15;2.45;;;13.60;99.90;;;;;;4790189;29;20494;-78
2023/10/08 01:06:18;;;;;;;4.55;2.30;;;13.60;99.90;;;;;;4786958;29;20402;-78
2023/10/08 01:08:52;;;;;;;4.20;2.53;;;13.50;99.90;;;;;;4815717;29;20042;-78
2023/10/08 01:11:46;;;;;;;3.03;2.00;;;13.50;99.90;;;;;;4813736;29;20528;-78
2023/10/08 01:14:11;;;;;;;3.28;1.90;;;13.50;99.90;;;;;;4805764;29;21051;-78
2023/10/08 01:16:39;;;;;;;2.83;1.75;;;13.40;99.90;;;;;;4805160;29;20081;-78
2023/10/08 01:19:05;;;;;;;3.80;1.65;;;13.40;99.90;;;;;;4806341;29;20149;-78
2023/10/08 01:21:39;;;;;;;2.85;1.55;;;13.50;99.90;;;;;;4791466;29;20058;-78
2023/10/08 01:24:06;;;;;;;3.70;1.58;;;13.40;99.90;;;;;;4790767;29;20494;-78
2023/10/08 01:26:39;;;;;;;2.13;1.73;;;13.40;99.90;;;;;;4805302;29;20046;-78
2023/10/08 01:29:09;;;;;;;3.10;1.80;;;13.40;99.90;;;;;;4821606;29;20046;-78
2023/10/08 01:31:36;;;;;;;2.22;1.80;;;13.30;99.90;;;;;;4806593;29;20053;-78
2023/10/08 01:34:04;;;;;;;2.40;1.90;;;13.40;99.90;;;;;;4809142;29;20049;-77
2023/10/08 01:36:31;;;;;;;3.47;2.00;;;13.40;99.90;;;;;;4788961;29;20126;-79
2023/10/08 01:38:57;;;;;;;3.00;2.10;;;13.30;99.90;;;;;;4823265;29;20128;-77
2023/10/08 01:41:30;;;;;;;3.08;2.17;;;13.30;99.90;;;;;;4804290;29;20050;-78
2023/10/08 01:43:58;;;;;;;4.00;2.30;;;13.30;99.90;;;;;;4810151;29;20080;-78
2023/10/08 01:46:26;;;;;;;2.28;2.08;;;13.20;99.90;;;;;;4808200;29;20046;-78
2023/10/08 01:49:08;;;;;;;3.60;2.55;;;13.20;99.90;;;;;;4794673;29;20070;-78
2023/10/08 01:51:38;;;;;;;2.75;2.55;;;13.20;99.90;;;;;;4809313;29;20054;-78
2023/10/08 01:54:10;;;;;;;3.10;2.10;;;13.20;99.90;;;;;;4794235;29;20034;-78
2023/10/08 01:56:38;;;;;;;2.78;2.55;;;13.20;99.90;;;;;;4793675;29;20043;-79
2023/10/08 01:59:04;;;;;;;3.03;2.72;;;13.20;99.90;;;;;;4808844;29;20053;-78
2023/10/08 02:01:29;;;;;;;3.40;2.30;;;13.20;99.90;;;;;;4809279;29;20054;-78
2023/10/08 02:03:56;;;;;;;2.50;2.30;;;13.20;99.90;;;;;;4809693;29;20042;-78
2023/10/08 02:06:21;;;;;;;3.08;2.40;;;13.20;99.90;;;;;;4785710;29;20043;-76
2023/10/08 02:08:47;;;;;;;2.40;2.20;;;13.20;99.90;;;;;;4820315;29;20513;-75
2023/10/08 02:11:15;;;;;;;3.72;2.70;;;13.20;99.90;;;;;;4816834;29;20034;-77
2023/10/08 02:13:42;;;;;;;3.72;2.75;;;13.20;99.90;;;;;;4794115;29;20053;-76
2023/10/08 02:16:07;;;;;;;3.42;2.22;;;13.20;99.90;;;;;;4811726;29;20137;-77
2023/10/08 02:18:33;;;;;;;2.78;2.58;;;13.10;99.90;;;;;;4822773;29;20145;-76
2023/10/08 02:20:58;;;;;;;2.95;2.50;;;13.10;99.90;;;;;;4809187;29;20070;-77
2023/10/08 02:23:24;;;;;;;2.60;2.30;;;13.10;99.90;;;;;;4808954;29;20042;-77
2023/10/08 02:25:50;;;;;;;2.63;2.17;;;13.10;99.90;;;;;;4782187;29;20456;-77
2023/10/08 02:28:16;;;;;;;9.80;2.30;;;13.10;99.90;;;;;;4811830;29;20046;-77
2023/10/08 02:30:42;;;;;;;3.80;2.58;;;13.10;99.90;;;;;;4815568;29;20046;-77
2023/10/08 02:33:15;;;;;;;3.15;2.28;;;13.10;99.90;;;;;;4822648;29;20049;-77
2023/10/08 02:35:45;;;;;;;2.80;2.10;;;13.10;99.90;;;;;;4826648;29;20136;-77
2023/10/08 02:38:21;;;;;;;2.70;2.20;;;13.10;99.90;;;;;;4798854;29;20038;-77
2023/10/08 02:40:47;;;;;;;3.05;2.08;;;13.00;99.90;;;;;;4793653;29;20054;-77
2023/10/08 02:43:15;;;;;;;2.20;2.00;;;13.10;99.90;;;;;;4810914;29;20494;-77
2023/10/08 02:45:41;;;;;;;5.10;2.17;;;13.00;99.90;;;;;;4810857;29;20057;-77
2023/10/08 02:48:14;;;;;;;3.35;2.25;;;13.00;99.90;;;;;;4813719;29;20054;-77
2023/10/08 02:50:40;;;;;;;2.65;2.20;;;13.00;99.90;;;;;;4793798;29;20426;-77
2023/10/08 02:53:10;;;;;;;3.65;2.30;;;13.10;99.90;;;;;;4793726;29;20050;-77
2023/10/08 02:55:42;;;;;;;3.05;1.92;;;13.10;99.90;;;;;;4810017;29;20042;-77
2023/10/08 02:58:13;;;;;;;3.35;2.22;;;13.00;99.90;;;;;;4809397;29;20062;-77
2023/10/08 03:00:40;;;;;;;2.75;2.17;;;13.00;99.90;;;;;;4815526;29;20106;-77
2023/10/08 03:03:15;;;;;;;3.75;2.65;;;13.00;99.90;;;;;;4793362;29;20102;-77
2023/10/08 03:05:43;;;;;;;3.53;2.30;;;13.00;99.90;;;;;;4808205;29;20107;-77
2023/10/08 03:08:10;;;;;;;4.28;2.38;;;13.10;99.90;;;;;;4791728;29;20039;-77
2023/10/08 03:10:41;;;;;;;2.40;2.20;;;13.10;99.90;;;;;;4813921;29;20506;-77
2023/10/08 03:13:09;;;;;;;2.53;2.28;;;13.00;99.90;;;;;;4813530;29;20154;-77
2023/10/08 03:15:40;;;;;;;3.55;2.50;;;13.00;99.90;;;;;;4825290;29;20409;-77
2023/10/08 03:18:14;;;;;;;2.92;2.58;;;13.00;99.90;;;;;;4787206;29;20053;-77
2023/10/08 03:20:49;;;;;;;4.22;2.50;;;13.10;99.90;;;;;;4814452;29;20462;-76
2023/10/08 03:23:33;;;;;;;3.08;2.25;;;13.10;99.90;;;;;;4807205;29;20089;-76
2023/10/08 03:26:10;;;;;;;4.53;2.40;;;13.10;99.90;;;;;;4792667;29;20041;-77
2023/10/08 03:28:37;;;;;;;3.95;2.72;;;13.00;99.90;;;;;;4806660;29;20049;-77
2023/10/08 03:31:13;;;;;;;3.70;2.60;;;13.00;99.90;;;;;;4800188;29;20042;-77
2023/10/08 03:33:39;;;;;;;3.83;3.00;;;13.00;99.90;;;;;;4792740;29;20046;-77
2023/10/08 03:36:14;;;;;;;3.47;3.08;;;13.00;99.90;;;;;;4812994;29;20405;-77
2023/10/08 03:38:50;;;;;;;4.03;2.78;;;12.90;99.90;;;;;;4791979;29;20485;-77
2023/10/08 03:41:29;;;;;;;5.93;2.97;;;12.90;99.90;;;;;;4819459;29;20517;-77
2023/10/08 03:44:01;;;;;;;3.97;2.80;;;13.00;99.90;;;;;;4822429;29;20042;-77
2023/10/08 03:46:30;;;;;;;7.63;3.70;;;12.90;99.90;;;;;;4789978;29;20046;-77
2023/10/08 03:49:04;;;;;;;4.45;3.28;;;12.90;99.90;;;;;;4806520;29;20053;-77
2023/10/08 03:51:38;;;;;;;4.72;2.95;;;12.90;99.90;;;;;;4792509;29;20451;-77
2023/10/08 03:54:15;;;;;;;6.00;3.25;;;12.90;99.90;;;;;;4792586;29;20070;-77
2023/10/08 03:56:51;;;;;;;4.05;3.15;;;12.80;99.90;;;;;;4805919;29;20863;-77
2023/10/08 03:59:31;;;;;;;4.55;2.80;;;12.80;99.90;;;;;;4807745;29;20133;-77
2023/10/08 04:02:14;;;;;;;5.63;2.95;;;12.90;99.90;;;;;;4813788;29;20046;-77
2023/10/08 04:04:51;;;;;;;6.43;3.63;;;12.80;99.90;;;;;;4825014;29;20054;-77
2023/10/08 04:12:35;;;;;;;4.32;3.22;;;12.80;99.90;;;;;;4807219;29;20137;-76
2023/10/08 04:15:07;;;;;;;6.18;4.07;;;12.80;99.90;;;;;;4806826;29;20050;-76
2023/10/08 04:17:45;;;;;;;5.78;4.28;;;12.80;99.90;;;;;;4798479;29;20046;-76
2023/10/08 04:22:59;;;;;;;7.28;4.25;;;12.70;99.90;;;;;;4819423;29;20421;-76
2023/10/08 04:25:31;;;;;;;7.63;4.30;;;12.70;99.90;;;;;;4809765;29;20042;-76
2023/10/08 04:27:58;;;;;;;9.07;4.80;;;12.70;99.90;;;;;;4791686;29;20042;-76
2023/10/08 04:30:35;;;;;;;5.25;4.07;;;12.70;99.90;;;;;;4804526;29;20050;-76
2023/10/08 04:33:14;;;;;;;5.07;4.10;;;12.70;99.90;;;;;;4806857;29;20046;-76
2023/10/08 04:36:01;;;;;;;5.95;4.85;;;12.70;99.90;;;;;;4805536;29;20087;-76
2023/10/08 04:38:36;;;;;;;7.38;4.72;;;12.70;99.90;;;;;;4812167;29;20498;-76
2023/10/08 04:41:08;;;;;;;6.47;4.25;;;12.70;99.90;;;;;;4811490;29;20524;-77
2023/10/08 04:43:37;;;;;;;6.03;4.20;;;12.70;99.90;;;;;;4816570;29;20064;-77
2023/10/08 04:46:19;;;;;;;5.68;3.78;;;12.70;99.90;;;;;;4814028;29;20042;-76
2023/10/08 04:48:51;;;;;;;6.40;4.00;;;12.70;99.90;;;;;;4814247;29;20050;-76
2023/10/08 04:51:18;;;;;;;7.25;4.50;;;12.70;99.90;;;;;;4806996;29;20494;-76
2023/10/08 04:53:45;;;;;;;6.95;4.30;;;12.60;99.90;;;;;;4798370;29;20077;-76
2023/10/08 04:56:18;;;;;;;5.85;4.28;;;12.70;99.90;;;;;;4800920;29;20102;-76
2023/10/08 04:58:47;;;;;;;6.22;4.30;;;12.60;99.90;;;;;;4812821;29;20054;-76
2023/10/08 05:01:18;;;;;;;6.93;4.28;;;12.60;99.90;;;;;;4806439;29;20103;-76
2023/10/08 05:06:50;;;;;;;6.50;4.47;;;12.60;99.90;;;;;;4799718;29;20043;-77
2023/10/08 05:22:44;;;;;;;8.40;4.25;;;12.60;99.90;;;;;;4822786;29;20053;-76
2023/10/08 05:30:28;;;;;;;6.95;4.50;;;12.50;99.90;;;;;;4815685;29;20061;-77
2023/10/08 05:35:38;;;;;;;6.70;4.07;;;12.50;99.90;;;;;;4810527;29;20585;-77
2023/10/08 05:38:22;;;;;;;6.90;3.90;;;12.50;99.90;;;;;;4818070;29;20078;-77
2023/10/08 05:41:04;;;;;;;7.35;3.97;;;12.50;99.90;;;;;;4815118;29;20137;-77
2023/10/08 06:10:41;;;;;;;7.78;4.28;;;12.50;99.90;;;;;;4822813;29;20476;-77
2023/10/08 06:18:14;;;;;;;11.73;5.50;;;12.50;99.90;;;;;;4813534;29;20060;-77
2023/10/08 06:20:43;;;;;;;9.30;4.10;;;12.50;99.90;;;;;;4808570;29;20042;-77
2023/10/08 06:23:18;;;;;;;7.20;4.38;;;12.50;99.90;;;;;;4795795;29;20042;-77
2023/10/08 06:25:44;;;;;;;7.35;4.10;;;12.50;99.90;;;;;;4801880;29;20042;-77
2023/10/08 06:28:19;;;;;;;8.13;4.65;;;12.50;99.90;;;;;;4808960;29;20133;-77
2023/10/08 06:30:46;;;;;;;8.52;4.80;;;12.50;99.90;;;;;;4818358;29;20502;-77
2023/10/08 06:33:13;;;;;;;9.43;4.18;;;12.50;99.90;;;;;;4807711;29;20038;-77
2023/10/08 06:35:44;;;;;;;9.30;4.38;;;12.50;99.90;;;;;;4811079;29;20046;-77
2023/10/08 06:38:10;;;;;;;12.68;4.20;;;12.50;99.90;;;;;;4793202;29;20129;-77
2023/10/08 06:43:16;;;;;;;9.18;4.57;;;12.50;99.90;;;;;;4813475;29;20502;-81
2023/10/08 06:45:43;;;;;;;7.38;4.72;;;12.50;99.90;;;;;;4811872;29;20052;-75
2023/10/08 06:48:17;;;;;;;8.27;4.95;;;12.50;99.90;;;;;;4822154;29;20053;-78
2023/10/08 06:50:44;;;;;;;6.70;4.25;;;12.50;99.90;;;;;;4806826;29;20050;-77
2023/10/08 06:53:13;;;;;;;6.28;4.70;;;12.50;99.90;;;;;;4791494;29;20039;-77
2023/10/08 06:55:40;;;;;;;8.70;4.75;;;12.50;99.90;;;;;;4818799;29;20050;-77
2023/10/08 06:58:07;;;;;;;7.22;4.30;;;12.60;99.90;;;;;;4821307;29;20039;-77
2023/10/08 07:01:08;;;;;;;18.40;7.82;;;12.60;99.90;;;;;;4808273;29;20125;-77
2023/10/08 07:03:25;;;;;;;7.35;4.80;;;12.60;99.90;;;;;;4804752;29;20498;-77
2023/10/08 07:05:57;;;;;;;7.90;5.25;;;12.70;99.90;;;;;;4815175;29;20046;-77
2023/10/08 07:08:24;;;;;;;11.18;6.05;;;12.70;99.90;;;;;;4808562;29;20046;-77
2023/10/08 07:10:56;;;;;;;12.73;5.93;;;12.70;99.90;;;;;;4807573;29;20046;-77
2023/10/08 07:13:22;;;;;;;13.70;6.47;;;12.70;99.90;;;;;;4810020;29;20042;-77
2023/10/08 07:15:51;;;;;;;11.65;5.43;;;12.70;99.90;;;;;;4807752;29;20133;-77
2023/10/08 07:18:27;;;;;;;10.73;5.00;;;12.80;99.90;;;;;;4807927;29;20521;-77
2023/10/08 07:20:53;;;;;;;10.65;5.30;;;12.80;99.90;;;;;;4813102;29;20050;-77
2023/10/08 07:23:24;;;;;;;9.15;4.28;;;12.90;99.90;;;;;;4810174;29;20049;-77
2023/10/08 07:26:11;;;;;;;8.40;4.75;;;12.90;99.90;;;;;;4802822;29;20435;-77
2023/10/08 07:28:41;;;;;;;10.40;4.95;;;12.90;99.90;;;;;;4823298;29;20405;-77
2023/10/08 07:31:21;;;;;;;13.10;5.57;;;13.00;99.90;;;;;;4815917;29;20043;-77
2023/10/08 07:34:34;;;;;;;9.73;5.53;;;13.00;99.90;;;;;;4807847;29;20066;-77
2023/10/08 07:36:41;;;;;;;10.43;5.50;;;13.10;99.90;;;;;;4804809;29;20050;-76
2023/10/08 07:39:08;;;;;;;7.40;4.10;;;13.10;99.90;;;;;;4807702;29;20046;-76
2023/10/08 07:41:34;;;;;;;8.40;4.57;;;13.10;99.90;;;;;;4806679;29;20528;-76
2023/10/08 07:44:00;;;;;;;7.03;4.40;;;13.10;99.90;;;;;;4812069;29;20041;-76
2023/10/08 07:46:26;;;;;;;7.95;4.57;;;13.10;99.90;;;;;;4802877;29;20042;-76
2023/10/08 07:48:55;;;;;;;9.68;5.47;;;13.10;99.90;;;;;;4816256;29;20042;-76
2023/10/08 07:51:24;;;;;;;6.78;4.10;;;13.10;99.90;;;;;;4823129;29;20046;-76
2023/10/08 07:53:58;;;;;;;10.95;4.43;;;13.10;99.90;;;;;;4814012;29;20042;-76
2023/10/08 07:56:25;;;;;;;6.32;3.90;;;13.10;99.90;;;;;;4813476;29;20049;-77
2023/10/08 07:58:57;;;;;;;8.40;3.95;;;13.20;99.90;;;;;;4807414;29;20053;-77
2023/10/08 08:01:24;;;;;;;10.13;3.80;;;13.20;99.90;;;;;;4800010;29;20057;-77
2023/10/08 08:03:50;;;;;;;7.68;4.10;;;13.20;99.90;;;;;;4811866;29;20042;-76
2023/10/08 08:06:16;;;;;;;9.57;4.25;;;13.20;99.90;;;;;;4809139;29;20413;-76
2023/10/08 08:08:44;;;;;;;9.25;4.30;;;13.10;99.90;;;;;;4796593;29;20042;-77
2023/10/08 08:11:13;;;;;;;8.30;4.65;;;13.20;99.90;;;;;;4817989;29;20053;-76
2023/10/08 08:13:42;;;;;;;10.02;3.90;;;13.30;99.90;;;;;;4808876;29;20133;-76
2023/10/08 08:16:16;;;;;;;8.50;4.03;;;13.40;99.90;;;;;;4799255;29;20062;-78
2023/10/08 08:18:56;;;;;;;8.23;3.85;;;13.40;99.90;;;;;;4792255;29;20054;-76
2023/10/08 08:21:23;;;;;;;10.98;3.75;;;13.50;99.90;;;;;;4822035;29;20446;-77
2023/10/08 08:23:49;;;;;;;10.48;3.88;;;13.60;99.90;;;;;;4812998;29;20047;-77
2023/10/08 08:26:28;;;;;;;8.73;3.30;;;13.60;99.90;;;;;;4804463;29;20099;-77
2023/10/08 08:29:00;;;;;;;10.27;3.45;;;13.70;99.90;;;;;;4813781;29;20518;-77
2023/10/08 08:31:26;;;;;;;10.13;3.78;;;13.80;99.90;;;;;;4823296;29;20049;-77
2023/10/08 08:33:53;;;;;;;7.65;3.22;;;13.90;99.90;;;;;;4807748;29;20103;-77
2023/10/08 08:36:20;;;;;;;11.63;3.78;;;14.00;99.90;;;;;;4804326;29;20042;-77
2023/10/08 08:38:46;;;;;;;9.85;3.13;;;14.00;99.90;;;;;;4800240;29;20093;-77
2023/10/08 08:41:12;;;;;;;10.02;3.30;;;14.00;99.90;;;;;;4821469;29;20467;-77
2023/10/08 08:43:44;;;;;;;7.30;2.90;;;14.00;99.90;;;;;;4816286;29;20041;-77
2023/10/08 08:46:13;;;;;;;6.80;2.50;;;14.00;99.90;;;;;;4805289;29;20046;-77
2023/10/08 08:48:47;;;;;;;7.25;2.55;;;14.00;99.90;;;;;;4821379;29;20045;-77
2023/10/08 08:51:13;;;;;;;5.43;2.70;;;13.90;99.90;;;;;;4806503;29;20050;-77
2023/10/08 08:53:41;;;;;;;5.50;2.00;;;13.90;99.90;;;;;;4805522;29;20057;-77
2023/10/08 08:56:12;;;;;;;8.57;2.42;;;14.00;99.90;;;;;;4804795;29;20468;-77
2023/10/08 08:58:38;;;;;;;7.15;2.92;;;13.90;99.90;;;;;;4810942;29;20045;-77
2023/10/08 09:01:09;;;;;;;7.25;2.05;;;13.90;99.90;;;;;;4796729;29;20498;-77
2023/10/08 09:03:34;;;;;;;9.25;2.55;;;14.00;99.90;;;;;;4805518;29;20067;-77
2023/10/08 09:06:01;;;;;;;6.80;1.90;;;14.10;99.90;;;;;;4804479;29;20049;-78
2023/10/08 09:08:34;;;;;;;7.30;2.40;;;14.20;99.90;;;;;;4805802;29;20053;-79
2023/10/08 09:11:04;;;;;;;7.78;2.30;;;14.20;99.90;;;;;;4791190;29;20456;-77
2023/10/08 09:13:32;;;;;;;7.97;2.25;;;14.30;99.90;;;;;;4785127;29;20111;-78
2023/10/08 09:16:06;;;;;;;7.53;2.22;;;14.30;99.90;;;;;;4804648;29;20046;-78
2023/10/08 09:18:32;;;;;;;7.97;2.55;;;14.30;99.90;;;;;;4806521;29;20121;-77
2023/10/08 09:21:10;;;;;;;11.38;2.20;;;14.40;99.90;;;;;;4806282;29;20133;-77
2023/10/08 09:23:43;;;;;;;7.32;2.10;;;14.50;99.90;;;;;;4806079;29;20117;-77
2023/10/08 09:26:09;;;;;;;7.15;2.05;;;14.50;99.90;;;;;;4812825;29;20087;-77
2023/10/08 09:28:38;;;;;;;7.47;2.30;;;14.60;99.90;;;;;;4823626;29;20121;-77
2023/10/08 09:31:04;;;;;;;6.95;2.40;;;14.60;99.90;;;;;;4824488;29;20517;-78
2023/10/08 09:33:30;;;;;;;8.82;2.38;;;14.60;99.90;;;;;;4824423;29;20132;-78
2023/10/08 09:36:02;;;;;;;9.25;2.15;;;14.60;99.90;;;;;;4824109;29;20092;-78
2023/10/08 09:38:30;;;;;;;7.50;2.17;;;14.70;99.90;;;;;;4799619;29;20107;-77
2023/10/08 09:40:56;;;;;;;10.75;2.20;;;14.70;99.90;;;;;;4803698;29;20051;-77
2023/10/08 09:43:24;;;;;;;7.88;2.35;;;14.80;99.90;;;;;;4814269;29;20078;-78
2023/10/08 09:46:00;;;;;;;6.32;1.95;;;14.80;99.90;;;;;;4824140;29;20104;-77
2023/10/08 09:48:27;;;;;;;6.40;2.05;;;14.90;99.90;;;;;;4824297;29;20125;-77
2023/10/08 09:50:55;;;;;;;6.30;2.30;;;14.90;99.90;;;;;;4824579;29;20076;-77
2023/10/08 09:53:31;;;;;;;8.65;2.35;;;14.90;99.90;;;;;;4797419;29;20088;-78
2023/10/08 09:55:57;;;;;;;6.68;1.88;;;14.90;99.90;;;;;;4819192;29;20054;-78
2023/10/08 09:58:27;;;;;;;4.97;1.75;;;14.90;99.90;;;;;;4811933;29;20054;-77
2023/10/08 10:00:56;;;;;;;8.63;2.10;;;15.00;99.90;;;;;;4810015;29;20091;-80
2023/10/08 10:03:25;;;;;;;9.88;2.28;;;15.00;99.90;;;;;;4813294;29;20050;-77
2023/10/08 10:05:51;;;;;;;7.13;1.80;;;15.10;99.90;;;;;;4806164;29;20090;-78
2023/10/08 10:08:17;;;;;;;7.75;1.77;;;15.20;99.90;;;;;;4796572;29;20125;-79
2023/10/08 10:10:49;;;;;;;6.20;2.00;;;15.30;99.90;;;;;;4807015;29;20091;-77
2023/10/08 10:13:16;;;;;;;7.97;2.25;;;15.50;99.90;;;;;;4808550;29;20450;-77
2023/10/08 10:15:43;;;;;;;10.27;2.20;;;15.50;99.90;;;;;;4808585;29;20095;-78
2023/10/08 10:18:13;;;;;;;8.15;2.05;;;15.60;99.90;;;;;;4792912;29;20050;-77
2023/10/08 10:21:00;;;;;;;7.75;2.00;;;15.60;99.90;;;;;;4808087;29;20046;-77
2023/10/08 10:23:36;;;;;;;7.50;1.90;;;15.90;99.90;;;;;;4800197;29;20133;-77
2023/10/08 10:26:03;;;;;;;6.20;1.90;;;16.10;99.90;;;;;;4804251;29;20046;-77
2023/10/08 10:28:29;;;;;;;8.07;2.00;;;16.10;99.90;;;;;;4827236;29;20056;-77
2023/10/08 10:30:56;;;;;;;8.32;1.95;;;16.00;99.90;;;;;;4819225;29;20609;-77
2023/10/08 10:33:29;;;;;;;8.15;1.80;;;15.90;99.90;;;;;;4816419;29;20387;-77
2023/10/08 10:35:55;;;;;;;7.50;2.28;;;15.80;99.90;;;;;;4808535;29;20042;-77
2023/10/08 10:38:26;;;;;;;9.25;1.95;;;15.90;99.90;;;;;;4808821;29;20042;-77
2023/10/08 10:40:58;;;;;;;6.75;1.92;;;16.00;99.90;;;;;;4812477;29;20106;-78
2023/10/08 10:43:31;;;;;;;7.60;2.13;;;16.00;99.90;;;;;;4793263;29;20045;-77
2023/10/08 10:46:19;;;;;;;7.75;1.73;;;16.10;99.90;;;;;;4818283;29;20134;-77
2023/10/08 10:48:57;;;;;;;7.78;1.77;;;16.20;99.90;;;;;;4800862;29;20074;-78
2023/10/08 10:51:23;;;;;;;8.80;2.30;;;16.30;99.90;;;;;;4809955;29;20050;-79
2023/10/08 10:54:07;;;;;;;5.57;1.67;;;16.40;99.90;;;;;;4808288;29;20054;-79
2023/10/08 10:56:42;;;;;;;8.40;1.80;;;16.60;99.90;;;;;;4791498;29;20406;-78
2023/10/08 10:59:26;;;;;;;8.20;1.90;;;16.80;99.90;;;;;;4808399;29;20049;-78
2023/10/08 11:01:52;;;;;;;6.90;1.95;;;16.90;99.90;;;;;;4790688;29;20053;-78
2023/10/08 11:04:28;;;;;;;5.18;1.55;;;17.00;99.90;;;;;;4789777;29;20035;-78
2023/10/08 11:06:58;;;;;;;6.18;1.88;;;17.10;99.90;;;;;;4812463;29;20050;-77
2023/10/08 11:09:38;;;;;;;5.78;1.77;;;17.40;99.90;;;;;;4824214;29;20075;-78
2023/10/08 11:12:11;;;;;;;5.75;1.90;;;17.70;99.90;;;;;;4811690;29;20046;-78
2023/10/08 11:14:41;;;;;;;7.43;1.98;;;18.00;99.90;;;;;;4826514;29;20098;-78
2023/10/08 11:17:16;;;;;;;8.10;2.10;;;18.00;99.90;;;;;;4812324;29;20136;-78
2023/10/08 11:19:45;;;;;;;8.57;2.08;;;17.90;99.90;;;;;;4820816;29;20068;-78
2023/10/08 11:22:16;;;;;;;6.93;1.90;;;17.80;99.90;;;;;;4811585;29;20129;-78
2023/10/08 11:24:44;;;;;;;5.72;1.70;;;17.80;99.90;;;;;;4808109;29;20043;-77
2023/10/08 11:27:16;;;;;;;5.85;1.75;;;17.80;99.90;;;;;;4807927;29;20042;-78
2023/10/08 11:29:47;;;;;;;7.47;2.00;;;17.70;99.90;;;;;;4807986;29;20494;-78
2023/10/08 11:32:25;;;;;;;6.05;2.10;;;17.80;99.90;;;;;;4813839;29;20509;-78
2023/10/08 11:35:00;;;;;;;6.88;2.08;;;17.90;99.90;;;;;;4796186;29;20050;-77
2023/10/08 11:37:33;;;;;;;7.40;1.80;;;18.00;99.90;;;;;;4823895;29;20113;-78
2023/10/08 11:40:08;;;;;;;7.15;1.70;;;18.00;99.90;;;;;;4825924;29;20102;-78
2023/10/08 11:45:05;;;;;;;7.13;1.77;;;18.00;99.90;;;;;;4818580;29;20047;-78
2023/10/08 11:47:35;;;;;;;7.75;2.22;;;18.00;99.90;;;;;;4800535;29;20046;-78
2023/10/08 11:50:10;;;;;;;7.90;1.95;;;18.10;99.90;;;;;;4807671;29;20038;-78
2023/10/08 11:52:41;;;;;;;8.45;1.80;;;18.30;99.90;;;;;;4807653;29;20053;-78
2023/10/08 11:55:09;;;;;;;6.07;1.80;;;18.50;99.90;;;;;;4807808;29;20086;-78
2023/10/08 11:57:36;;;;;;;7.05;1.92;;;18.70;99.90;;;;;;4808038;29;20137;-78
2023/10/08 12:00:18;;;;;;;5.57;1.80;;;18.80;99.90;;;;;;4812500;29;20520;-78
2023/10/08 12:02:47;;;;;;;7.28;1.70;;;18.90;99.90;;;;;;4803570;29;20057;-78
2023/10/08 12:05:19;;;;;;;6.47;1.90;;;19.30;99.90;;;;;;4825586;29;20041;-78
2023/10/08 12:07:46;;;;;;;6.25;1.90;;;19.50;99.90;;;;;;4825723;29;20090;-78
2023/10/08 12:10:13;;;;;;;5.47;2.00;;;19.60;99.90;;;;;;4816987;29;20045;-78
2023/10/08 12:12:38;;;;;;;10.60;2.10;;;19.70;99.90;;;;;;4814912;29;20058;-78
2023/10/08 12:15:07;;;;;;;6.07;1.80;;;19.90;99.90;;;;;;4792575;29;20042;-78
2023/10/08 12:17:42;;;;;;;6.47;1.67;;;19.90;99.90;;;;;;4806617;29;20046;-78
2023/10/08 12:20:43;;;;;;;7.05;1.60;;;19.70;99.90;;;;;;4807794;29;20062;-78
2023/10/08 12:23:00;;;;;;;6.38;1.65;;;19.60;99.90;;;;;;4806413;29;20494;-78
2023/10/08 12:25:25;;;;;;;6.63;1.98;;;19.60;99.90;;;;;;4816232;29;20098;-78
2023/10/08 12:27:51;;;;;;;8.40;1.67;;;19.70;99.90;;;;;;4825069;29;20046;-78
2023/10/08 12:30:16;;;;;;;6.63;1.80;;;19.90;99.90;;;;;;4815656;29;20045;-78
2023/10/08 12:32:44;;;;;;;6.60;1.80;;;20.20;99.90;;;;;;4803160;29;20524;-78
2023/10/08 12:35:12;;;;;;;5.57;1.77;;;20.40;99.90;;;;;;4819136;29;20115;-78
2023/10/08 12:37:39;;;;;;;6.40;2.03;;;20.60;99.90;;;;;;4802373;29;20042;-78
2023/10/08 12:40:22;;;;;;;7.25;1.92;;;20.60;99.90;;;;;;4818401;29;20038;-78
2023/10/08 12:42:50;;;;;;;5.95;1.77;;;20.40;99.90;;;;;;4799565;29;20422;-78
2023/10/08 12:45:20;;;;;;;5.53;1.95;;;20.60;99.90;;;;;;4807472;29;20533;-78
2023/10/08 12:47:50;;;;;;;6.20;2.00;;;20.70;99.90;;;;;;4826246;29;20041;-78
2023/10/08 12:50:42;;;;;;;5.43;1.60;;;20.70;99.90;;;;;;4821969;29;20065;-78
2023/10/08 12:53:11;;;;;;;6.45;1.95;;;20.90;99.90;;;;;;4815881;29;20050;-78
2023/10/08 12:55:40;;;;;;;7.18;2.05;;;21.10;99.90;;;;;;4808609;29;20545;-78
2023/10/08 12:58:09;;;;;;;5.00;1.63;;;21.40;99.90;;;;;;4808437;29;20042;-78
2023/10/08 13:00:38;;;;;;;6.63;1.85;;;21.80;99.90;;;;;;4808622;29;20581;-78
2023/10/08 13:03:07;;;;;;;5.93;1.90;;;22.00;99.90;;;;;;4816346;29;20046;-78
2023/10/08 13:05:33;;;;;;;8.35;1.60;;;22.00;99.90;;;;;;4825204;29;20042;-78
2023/10/08 13:08:09;;;;;;;6.72;2.00;;;21.90;99.90;;;;;;4826123;29;20121;-78
2023/10/08 13:10:38;;;;;;;7.03;1.60;;;21.80;99.90;;;;;;4810791;29;20074;-78
2023/10/08 13:13:06;;;;;;;6.38;1.63;;;21.60;99.90;;;;;;4817040;29;20129;-77
2023/10/08 13:15:35;;;;;;;7.68;1.67;;;21.50;99.90;;;;;;4794145;29;20053;-78
2023/10/08 13:18:03;;;;;;;5.75;1.60;;;21.60;99.90;;;;;;4800296;29;20128;-78
2023/10/08 13:20:33;;;;;;;5.07;1.60;;;21.40;99.90;;;;;;4823513;29;20060;-78
2023/10/08 13:23:02;;;;;;;6.65;2.00;;;21.00;99.90;;;;;;4825310;29;20053;-78
2023/10/08 13:25:27;;;;;;;5.50;1.40;;;20.60;99.90;;;;;;4825179;29;20042;-78
2023/10/08 13:27:54;;;;;;;8.65;2.03;;;20.10;99.90;;;;;;4819115;29;20133;-78
2023/10/08 13:30:20;;;;;;;7.03;1.80;;;19.70;99.90;;;;;;4797491;29;20038;-78
2023/10/08 13:32:46;;;;;;;6.30;1.80;;;19.40;99.90;;;;;;4808513;29;20494;-78
2023/10/08 13:35:15;;;;;;;4.25;1.45;;;19.10;99.90;;;;;;4810216;29;20068;-78
2023/10/08 13:37:42;;;;;;;5.55;1.70;;;18.80;99.90;;;;;;4813042;29;20041;-78
2023/10/08 13:40:09;;;;;;;5.32;1.67;;;18.60;99.90;;;;;;4797445;29;20034;-77
2023/10/08 13:42:34;;;;;;;5.47;1.67;;;18.40;99.90;;;;;;4792628;29;20077;-79
2023/10/08 13:45:07;;;;;;;5.03;1.80;;;18.30;99.90;;;;;;4814562;29;20089;-79
2023/10/08 13:47:34;;;;;;;3.90;1.55;;;18.10;99.90;;;;;;4804285;29;20045;-79
2023/10/08 13:49:59;;;;;;;5.93;2.00;;;18.00;99.90;;;;;;4813940;29;20098;-78
2023/10/08 13:52:26;;;;;;;6.15;1.80;;;17.90;99.90;;;;;;4808583;29;20054;-78
2023/10/08 13:54:52;;;;;;;5.88;1.90;;;17.80;99.90;;;;;;4792328;29;20046;-79
2023/10/08 13:57:19;;;;;;;5.07;1.63;;;17.70;99.90;;;;;;4808903;29;20046;-78
2023/10/08 13:59:48;;;;;;;7.75;1.98;;;17.60;99.90;;;;;;4809604;29;20073;-78
2023/10/08 14:02:21;;;;;;;6.20;1.80;;;17.50;99.90;;;;;;4792950;29;20045;-78
2023/10/08 14:04:50;;;;;;;7.40;1.92;;;17.40;99.90;;;;;;4821638;29;20062;-78
2023/10/08 16:34:27;;;;;;;6.18;2.22;;;14.70;99.90;;;;;;4818718;29;20114;-82
2023/10/08 16:36:54;;;;;;;8.50;2.53;;;14.70;99.90;;;;;;4812804;29;20473;-82
2023/10/08 16:39:24;;;;;;;7.05;1.95;;;14.70;99.90;;;;;;4788079;29;20126;-82